Time;durP1;ratioP1;P1;durP2;ratioP2;P2;SDS_P1;SDS_P2;PMS_P1;PMS_P2;Temp;Humidity;BMP_temperature;BMP_pressure;BME280_temperature;BME280_humidity;BME280_pressure;Samples;Min_cycle;Max_cycle;Signal;HPM_P1;HPM_P2
2022/01/23 00:02:06;;;;;;;11.53;9.00;;;;;;;;;;5086820;28;20436;-78
2022/01/23 00:04:33;;;;;;;12.17;9.17;;;;;;;;;;5058178;28;20507;-78
2022/01/23 00:07:03;;;;;;;9.80;8.13;;;;;;;;;;5053141;28;20445;-78
2022/01/23 00:09:31;;;;;;;9.87;8.37;;;;;;;;;;5053036;28;20537;-78
2022/01/23 00:11:59;;;;;;;11.63;9.10;;;;;;;;;;5053354;28;20437;-78
2022/01/23 00:17:21;;;;;;;12.00;9.67;;;;;;;;;;5053308;28;20421;-77
2022/01/23 00:19:49;;;;;;;10.27;8.60;;;;;;;;;;5053335;28;20850;-80
2022/01/23 00:22:18;;;;;;;11.10;8.73;;;;;;;;;;5053469;28;20443;-79
2022/01/23 00:30:26;;;;;;;10.60;9.30;;;;;;;;;;5078086;28;20486;-79
2022/01/23 00:32:53;;;;;;;10.10;8.80;;;;;;;;;;5077670;28;20438;-78
2022/01/23 00:35:20;;;;;;;11.57;9.47;;;;;;;;;;5077974;28;20436;-79
2022/01/23 00:37:48;;;;;;;10.53;8.83;;;;;;;;;;5077721;28;20460;-79
2022/01/23 00:40:16;;;;;;;10.23;8.80;;;;;;;;;;5077742;28;20445;-80
2022/01/23 00:42:43;;;;;;;11.03;8.30;;;;;;;;;;5077486;28;20446;-79
2022/01/23 00:45:26;;;;;;;12.87;9.23;;;;;;;;;;5077789;28;20418;-78
2022/01/23 00:47:56;;;;;;;10.60;9.50;;;;;;;;;;5077697;28;20474;-79
2022/01/23 00:50:23;;;;;;;9.60;8.60;;;;;;;;;;5077830;28;20486;-78
2022/01/23 00:52:51;;;;;;;11.07;8.63;;;;;;;;;;5077257;28;20458;-78
2022/01/23 00:55:18;;;;;;;11.23;8.20;;;;;;;;;;5077280;28;20437;-79
2022/01/23 00:57:45;;;;;;;11.23;8.50;;;;;;;;;;5077424;28;20470;-78
2022/01/23 01:00:13;;;;;;;10.83;8.93;;;;;;;;;;5083228;28;20440;-79
2022/01/23 01:02:40;;;;;;;10.27;8.17;;;;;;;;;;5095974;28;20434;-79
2022/01/23 01:05:08;;;;;;;11.10;9.47;;;;;;;;;;5078151;28;20445;-78
2022/01/23 01:07:35;;;;;;;12.40;9.53;;;;;;;;;;5072802;28;20468;-77
2022/01/23 01:10:08;;;;;;;9.30;7.90;;;;;;;;;;5072160;28;21003;-79
2022/01/23 01:12:40;;;;;;;13.33;8.53;;;;;;;;;;5072765;28;21069;-77
2022/01/23 01:31:45;;;;;;;12.90;9.90;;;;;;;;;;5072255;28;20427;-77
2022/01/23 01:34:17;;;;;;;13.90;10.83;;;;;;;;;;5072342;28;20448;-77
2022/01/23 01:36:49;;;;;;;12.50;10.47;;;;;;;;;;5071265;28;20517;-77
2022/01/23 01:39:16;;;;;;;14.53;10.23;;;;;;;;;;5066965;28;20530;-77
2022/01/23 01:41:45;;;;;;;13.73;10.73;;;;;;;;;;5072177;28;20442;-77
2022/01/23 01:44:13;;;;;;;13.60;11.50;;;;;;;;;;5070755;28;20507;-78
2022/01/23 01:46:40;;;;;;;13.60;11.70;;;;;;;;;;5070001;28;20441;-77
2022/01/23 01:49:08;;;;;;;13.60;11.10;;;;;;;;;;5070316;28;20465;-78
2022/01/23 01:51:35;;;;;;;11.87;10.43;;;;;;;;;;5070661;28;20476;-77
2022/01/23 01:54:13;;;;;;;15.93;10.77;;;;;;;;;;5071116;28;20441;-77
2022/01/23 01:56:48;;;;;;;12.60;10.60;;;;;;;;;;5071290;28;20453;-77
2022/01/23 01:59:44;;;;;;;15.40;12.53;;;;;;;;;;5071017;28;20470;-77
2022/01/23 02:10:25;;;;;;;16.40;12.20;;;;;;;;;;5050829;28;20489;-77
2022/01/23 02:13:08;;;;;;;15.77;12.40;;;;;;;;;;5050690;28;20960;-78
2022/01/23 02:18:42;;;;;;;14.57;11.87;;;;;;;;;;5051238;28;20551;-78
2022/01/23 02:24:09;;;;;;;14.87;12.83;;;;;;;;;;5050615;28;20420;-78
2022/01/23 02:51:31;;;;;;;15.43;13.50;;;;;;;;;;5054845;28;20484;-79
2022/01/23 02:54:22;;;;;;;14.77;12.57;;;;;;;;;;5057089;28;20475;-79
2022/01/23 02:56:52;;;;;;;15.03;12.40;;;;;;;;;;5072877;28;20445;-77
2022/01/23 02:59:25;;;;;;;16.07;12.20;;;;;;;;;;5074127;28;20467;-77
2022/01/23 03:02:09;;;;;;;16.27;12.47;;;;;;;;;;5073983;28;21020;-78
2022/01/23 03:04:39;;;;;;;14.33;12.60;;;;;;;;;;5073957;28;20449;-77
2022/01/23 03:07:18;;;;;;;14.70;12.23;;;;;;;;;;5074283;28;20510;-77
2022/01/23 03:09:54;;;;;;;17.63;13.53;;;;;;;;;;5073823;28;20452;-78
2022/01/23 03:15:12;;;;;;;14.53;12.00;;;;;;;;;;5062945;28;20806;-78
2022/01/23 03:26:14;;;;;;;14.80;13.07;;;;;;;;;;5073710;28;20415;-78
2022/01/23 03:29:02;;;;;;;17.47;13.30;;;;;;;;;;5073898;28;20524;-78
2022/01/23 03:31:32;;;;;;;15.17;12.07;;;;;;;;;;5074210;28;20487;-78
2022/01/23 03:34:00;;;;;;;16.37;12.60;;;;;;;;;;5073958;28;20799;-78
2022/01/23 03:36:27;;;;;;;16.90;12.50;;;;;;;;;;5073179;28;20554;-79
2022/01/23 03:38:54;;;;;;;16.50;13.10;;;;;;;;;;5073343;28;20888;-77
2022/01/23 03:41:22;;;;;;;17.10;13.37;;;;;;;;;;5073476;28;20436;-77
2022/01/23 03:43:49;;;;;;;14.77;12.40;;;;;;;;;;5072960;28;20441;-77
2022/01/23 03:46:35;;;;;;;14.93;12.00;;;;;;;;;;5073212;28;20446;-79
2022/01/23 03:51:47;;;;;;;16.60;13.10;;;;;;;;;;5073363;28;20561;-78
2022/01/23 03:54:14;;;;;;;16.80;12.43;;;;;;;;;;5072647;28;20472;-77
2022/01/23 03:56:43;;;;;;;21.30;13.93;;;;;;;;;;5073350;28;20445;-78
2022/01/23 03:59:10;;;;;;;17.17;15.10;;;;;;;;;;5073287;28;20809;-77
2022/01/23 04:01:37;;;;;;;20.37;14.80;;;;;;;;;;5073427;28;20439;-78
2022/01/23 04:04:14;;;;;;;19.80;15.93;;;;;;;;;;5073308;28;20459;-77
2022/01/23 04:06:41;;;;;;;20.07;15.47;;;;;;;;;;5072992;28;20467;-79
2022/01/23 04:09:08;;;;;;;21.30;15.53;;;;;;;;;;5073144;28;20467;-78
2022/01/23 04:11:35;;;;;;;20.97;14.50;;;;;;;;;;5073141;28;20890;-79
2022/01/23 04:14:07;;;;;;;19.90;16.97;;;;;;;;;;5072776;28;20442;-78
2022/01/23 04:17:17;;;;;;;17.87;15.00;;;;;;;;;;5072885;28;20448;-78
2022/01/23 04:19:59;;;;;;;23.70;15.90;;;;;;;;;;5071187;28;20849;-77
2022/01/23 04:33:43;;;;;;;19.23;15.60;;;;;;;;;;5097947;28;20490;-78
2022/01/23 05:01:15;;;;;;;20.17;15.30;;;;;;;;;;5088547;28;20437;-78
2022/01/23 05:06:31;;;;;;;24.07;16.80;;;;;;;;;;5052853;28;20437;-78
2022/01/23 05:08:58;;;;;;;19.80;15.00;;;;;;;;;;5052104;28;20474;-78
2022/01/23 05:11:25;;;;;;;22.00;16.73;;;;;;;;;;5052162;28;20488;-77
2022/01/23 05:13:52;;;;;;;23.47;16.07;;;;;;;;;;5052274;28;20475;-78
2022/01/23 05:16:19;;;;;;;20.57;17.00;;;;;;;;;;5052515;28;20449;-78
2022/01/23 05:18:48;;;;;;;20.87;15.97;;;;;;;;;;5052268;28;20488;-78
2022/01/23 05:21:41;;;;;;;20.43;15.53;;;;;;;;;;5052322;28;20452;-77
2022/01/23 05:24:08;;;;;;;19.73;16.03;;;;;;;;;;5051886;28;20985;-78
2022/01/23 05:26:42;;;;;;;23.10;17.13;;;;;;;;;;5052529;28;20455;-77
2022/01/23 05:29:09;;;;;;;22.93;16.90;;;;;;;;;;5052533;28;20482;-79
2022/01/23 05:31:36;;;;;;;22.47;17.57;;;;;;;;;;5052375;28;20486;-77
2022/01/23 05:34:04;;;;;;;26.10;17.40;;;;;;;;;;5051550;28;20454;-78
2022/01/23 05:36:32;;;;;;;23.80;17.80;;;;;;;;;;5052236;28;20906;-78
2022/01/23 05:38:59;;;;;;;23.60;17.47;;;;;;;;;;5052450;28;20461;-77
2022/01/23 05:41:27;;;;;;;23.93;16.93;;;;;;;;;;5055179;28;20510;-79
2022/01/23 05:43:54;;;;;;;23.87;18.90;;;;;;;;;;5071357;28;20441;-78
2022/01/23 05:46:21;;;;;;;23.23;18.23;;;;;;;;;;5071596;28;20447;-78
2022/01/23 05:48:48;;;;;;;22.93;17.37;;;;;;;;;;5071830;28;20872;-77
2022/01/23 05:51:16;;;;;;;23.83;17.57;;;;;;;;;;5071560;28;20487;-78
2022/01/23 05:53:43;;;;;;;22.50;17.20;;;;;;;;;;5071454;28;20444;-78
2022/01/23 05:56:10;;;;;;;29.50;19.10;;;;;;;;;;5071355;28;20450;-77
2022/01/23 05:58:37;;;;;;;22.10;17.50;;;;;;;;;;5071386;28;20524;-78
2022/01/23 06:01:05;;;;;;;27.50;18.37;;;;;;;;;;5073681;28;20983;-78
2022/01/23 06:03:32;;;;;;;24.03;17.13;;;;;;;;;;5067738;28;20480;-79
2022/01/23 06:05:59;;;;;;;79.07;55.90;;;;;;;;;;5056236;28;20438;-79
2022/01/23 06:08:27;;;;;;;49.27;35.60;;;;;;;;;;5056299;28;20464;-78
2022/01/23 06:10:56;;;;;;;66.93;45.93;;;;;;;;;;5055578;28;20493;-78
2022/01/23 06:13:24;;;;;;;29.73;20.13;;;;;;;;;;5055179;28;20489;-78
2022/01/23 06:15:51;;;;;;;23.03;16.90;;;;;;;;;;5058628;28;20801;-78
2022/01/23 06:18:18;;;;;;;27.07;19.83;;;;;;;;;;5059265;28;20477;-78
2022/01/23 06:20:45;;;;;;;23.37;17.23;;;;;;;;;;5059893;28;20840;-79
2022/01/23 06:23:13;;;;;;;24.20;19.80;;;;;;;;;;5059726;28;20969;-79
2022/01/23 06:25:44;;;;;;;29.17;19.83;;;;;;;;;;5056860;28;20498;-78
2022/01/23 06:28:11;;;;;;;25.43;19.70;;;;;;;;;;5055288;28;20483;-78
2022/01/23 06:30:39;;;;;;;23.90;19.47;;;;;;;;;;5055158;28;20501;-78
2022/01/23 06:33:06;;;;;;;24.90;18.20;;;;;;;;;;5054717;28;20532;-78
2022/01/23 06:35:35;;;;;;;28.23;20.70;;;;;;;;;;5054965;28;20442;-77
2022/01/23 06:38:02;;;;;;;23.50;18.83;;;;;;;;;;5055054;28;20469;-78
2022/01/23 06:40:29;;;;;;;25.07;19.00;;;;;;;;;;5054505;28;20448;-78
2022/01/23 06:42:58;;;;;;;28.40;19.47;;;;;;;;;;5054478;28;20451;-78
2022/01/23 06:45:25;;;;;;;23.57;17.70;;;;;;;;;;5055882;28;20502;-79
2022/01/23 06:47:52;;;;;;;24.73;18.27;;;;;;;;;;5054741;28;20524;-78
2022/01/23 06:50:19;;;;;;;24.87;18.60;;;;;;;;;;5055165;28;20427;-78
2022/01/23 06:52:46;;;;;;;27.03;17.40;;;;;;;;;;5054093;28;20567;-78
2022/01/23 06:55:13;;;;;;;49.20;39.27;;;;;;;;;;5054251;28;20956;-77
2022/01/23 06:57:40;;;;;;;34.20;25.80;;;;;;;;;;5054147;28;20498;-77
2022/01/23 07:00:09;;;;;;;30.80;22.03;;;;;;;;;;5054374;28;20448;-77
2022/01/23 07:02:36;;;;;;;29.00;21.17;;;;;;;;;;5053975;28;20438;-78
2022/01/23 07:05:03;;;;;;;27.47;21.90;;;;;;;;;;5054344;28;20867;-79
2022/01/23 07:07:30;;;;;;;28.87;20.70;;;;;;;;;;5054143;28;20437;-77
2022/01/23 07:09:57;;;;;;;25.83;19.83;;;;;;;;;;5054520;28;20477;-78
2022/01/23 07:12:24;;;;;;;25.10;19.40;;;;;;;;;;5061181;28;20486;-78
2022/01/23 07:14:51;;;;;;;24.90;19.90;;;;;;;;;;5074232;28;20491;-77
2022/01/23 07:17:21;;;;;;;28.70;20.47;;;;;;;;;;5071984;28;20475;-79
2022/01/23 07:19:48;;;;;;;28.37;18.70;;;;;;;;;;5072906;28;20433;-79
2022/01/23 07:22:15;;;;;;;25.90;18.70;;;;;;;;;;5073714;28;20445;-78
2022/01/23 07:24:42;;;;;;;213.13;131.90;;;;;;;;;;5074134;28;20925;-79
2022/01/23 07:27:16;;;;;;;175.93;99.10;;;;;;;;;;5074304;28;20451;-78
2022/01/23 07:29:44;;;;;;;38.90;27.53;;;;;;;;;;5073969;28;20513;-79
2022/01/23 07:32:11;;;;;;;31.63;22.13;;;;;;;;;;5074020;28;20480;-79
2022/01/23 07:34:39;;;;;;;27.00;20.97;;;;;;;;;;5073807;28;20858;-77
2022/01/23 07:37:06;;;;;;;27.70;20.73;;;;;;;;;;5073923;28;20430;-77
2022/01/23 07:39:33;;;;;;;27.37;20.60;;;;;;;;;;5065903;28;20466;-78
2022/01/23 07:42:00;;;;;;;27.67;19.07;;;;;;;;;;5073702;28;20473;-78
2022/01/23 07:44:27;;;;;;;23.50;18.70;;;;;;;;;;5073776;28;20498;-79
2022/01/23 07:46:54;;;;;;;22.97;18.00;;;;;;;;;;5073823;28;20452;-78
2022/01/23 07:49:21;;;;;;;24.47;18.67;;;;;;;;;;5073279;28;20973;-78
2022/01/23 07:51:50;;;;;;;24.63;19.10;;;;;;;;;;5073379;28;20464;-78
2022/01/23 07:54:17;;;;;;;26.33;19.20;;;;;;;;;;5073665;28;20440;-79
2022/01/23 07:56:44;;;;;;;27.40;18.93;;;;;;;;;;5073735;28;20449;-79
2022/01/23 07:59:11;;;;;;;25.90;18.80;;;;;;;;;;5073336;28;20449;-78
2022/01/23 08:01:39;;;;;;;26.20;20.00;;;;;;;;;;5073509;28;20446;-78
2022/01/23 08:04:07;;;;;;;24.90;18.33;;;;;;;;;;5072927;28;20523;-78
2022/01/23 08:06:40;;;;;;;27.57;20.07;;;;;;;;;;5073332;28;20470;-78
2022/01/23 08:09:09;;;;;;;28.80;20.53;;;;;;;;;;5073146;28;20854;-78
2022/01/23 08:11:36;;;;;;;28.10;20.30;;;;;;;;;;5073006;28;20482;-78
2022/01/23 08:14:03;;;;;;;27.40;19.90;;;;;;;;;;5073131;28;20455;-77
2022/01/23 08:16:30;;;;;;;27.30;20.30;;;;;;;;;;5073157;28;20438;-78
2022/01/23 08:18:57;;;;;;;28.07;20.67;;;;;;;;;;5073070;28;20971;-78
2022/01/23 08:21:24;;;;;;;29.77;21.70;;;;;;;;;;5073275;28;20433;-78
2022/01/23 08:23:54;;;;;;;29.83;21.20;;;;;;;;;;5072106;28;20762;-78
2022/01/23 08:26:23;;;;;;;30.27;22.30;;;;;;;;;;5073415;28;20832;-80
2022/01/23 08:28:50;;;;;;;27.83;20.83;;;;;;;;;;5073252;28;20468;-78
2022/01/23 08:31:17;;;;;;;32.93;22.43;;;;;;;;;;5072884;28;20794;-78
2022/01/23 08:33:44;;;;;;;27.77;20.77;;;;;;;;;;5079386;28;20454;-79
2022/01/23 08:36:11;;;;;;;29.27;21.37;;;;;;;;;;5093892;28;20445;-78
2022/01/23 08:38:38;;;;;;;29.03;21.43;;;;;;;;;;5094390;28;20475;-78
2022/01/23 08:43:52;;;;;;;29.60;20.73;;;;;;;;;;5094538;28;20408;-78
2022/01/23 08:46:19;;;;;;;31.80;22.13;;;;;;;;;;5091303;28;20463;-79
2022/01/23 08:48:46;;;;;;;31.90;22.30;;;;;;;;;;5067684;28;20481;-79
2022/01/23 08:51:14;;;;;;;26.70;21.00;;;;;;;;;;5071480;28;20446;-78
2022/01/23 08:53:41;;;;;;;28.23;21.70;;;;;;;;;;5071778;28;20445;-79
2022/01/23 08:56:08;;;;;;;31.30;22.93;;;;;;;;;;5073956;28;20445;-78
2022/01/23 08:58:35;;;;;;;33.00;21.63;;;;;;;;;;5074844;28;20487;-79
2022/01/23 09:01:03;;;;;;;30.43;21.20;;;;;;;;;;5074701;28;20441;-79
2022/01/23 09:03:30;;;;;;;28.80;22.30;;;;;;;;;;5073694;28;20865;-79
2022/01/23 09:05:57;;;;;;;28.00;20.90;;;;;;;;;;5072977;28;20944;-78
2022/01/23 09:08:24;;;;;;;28.47;21.50;;;;;;;;;;5072816;28;20466;-78
2022/01/23 09:10:57;;;;;;;32.13;21.70;;;;;;;;;;5073210;28;20951;-79
2022/01/23 09:13:51;;;;;;;32.63;21.97;;;;;;;;;;5073123;28;20466;-78
2022/01/23 09:16:19;;;;;;;32.50;22.20;;;;;;;;;;5073146;28;20770;-79
2022/01/23 09:18:46;;;;;;;28.93;22.37;;;;;;;;;;5073047;28;20875;-80
2022/01/23 09:21:13;;;;;;;32.50;22.20;;;;;;;;;;5073205;28;21072;-79
2022/01/23 09:23:41;;;;;;;28.33;21.10;;;;;;;;;;5072470;28;20457;-79
2022/01/23 09:26:10;;;;;;;27.97;21.80;;;;;;;;;;5072278;28;20499;-78
2022/01/23 09:28:40;;;;;;;29.27;21.50;;;;;;;;;;5072688;28;20472;-79
2022/01/23 09:31:07;;;;;;;28.60;21.33;;;;;;;;;;5073111;28;21010;-79
2022/01/23 09:33:35;;;;;;;30.27;21.83;;;;;;;;;;5072055;28;20481;-79
2022/01/23 09:36:02;;;;;;;29.27;22.37;;;;;;;;;;5072828;28;20457;-79
2022/01/23 09:38:29;;;;;;;27.50;21.13;;;;;;;;;;5070064;28;20466;-79
2022/01/23 09:41:00;;;;;;;27.53;21.30;;;;;;;;;;5059753;28;20453;-79
2022/01/23 09:43:29;;;;;;;26.47;20.37;;;;;;;;;;5071640;28;20805;-79
2022/01/23 09:45:56;;;;;;;27.97;20.70;;;;;;;;;;5052069;28;20497;-78
2022/01/23 09:48:24;;;;;;;26.80;19.43;;;;;;;;;;5052189;28;20800;-79
2022/01/23 09:50:53;;;;;;;26.47;21.03;;;;;;;;;;5052576;28;20971;-80
2022/01/23 09:53:22;;;;;;;30.17;21.70;;;;;;;;;;5051458;28;20713;-80
2022/01/23 09:55:52;;;;;;;26.77;21.20;;;;;;;;;;5052674;28;20474;-79
2022/01/23 09:58:19;;;;;;;29.00;21.23;;;;;;;;;;5052512;28;20470;-79
2022/01/23 10:00:47;;;;;;;28.73;22.57;;;;;;;;;;5058467;28;20462;-80
2022/01/23 10:03:19;;;;;;;27.13;20.67;;;;;;;;;;5061215;28;20533;-79
2022/01/23 10:05:46;;;;;;;29.53;21.90;;;;;;;;;;5070707;28;20460;-78
2022/01/23 10:08:15;;;;;;;27.50;21.40;;;;;;;;;;5072075;28;21147;-78
2022/01/23 10:10:42;;;;;;;26.83;20.80;;;;;;;;;;5072233;28;20457;-79
2022/01/23 10:13:10;;;;;;;28.23;22.47;;;;;;;;;;5071533;28;20473;-78
2022/01/23 10:15:37;;;;;;;27.90;21.80;;;;;;;;;;5072403;28;20474;-79
2022/01/23 10:18:04;;;;;;;25.70;21.33;;;;;;;;;;5071798;28;21018;-79
2022/01/23 10:20:32;;;;;;;24.87;21.07;;;;;;;;;;5071669;28;20805;-79
2022/01/23 10:22:59;;;;;;;27.40;20.10;;;;;;;;;;5062475;28;20480;-80
2022/01/23 10:25:29;;;;;;;26.50;19.93;;;;;;;;;;5071937;28;20480;-78
2022/01/23 10:27:59;;;;;;;25.40;20.30;;;;;;;;;;5068434;28;20504;-78
2022/01/23 10:30:28;;;;;;;24.63;18.30;;;;;;;;;;5066906;28;20449;-80
2022/01/23 10:32:59;;;;;;;19.93;16.87;;;;;;;;;;5070474;28;20948;-78
2022/01/23 10:35:26;;;;;;;21.97;17.83;;;;;;;;;;5071776;28;20447;-78
2022/01/23 10:37:55;;;;;;;24.60;18.60;;;;;;;;;;5071729;28;20469;-80
2022/01/23 10:40:29;;;;;;;23.47;18.53;;;;;;;;;;5071324;28;20467;-78
2022/01/23 10:48:37;;;;;;;18.43;14.60;;;;;;;;;;5071039;28;20987;-79
2022/01/23 10:51:14;;;;;;;18.63;15.47;;;;;;;;;;5074993;28;20448;-79
2022/01/23 10:53:56;;;;;;;22.73;16.10;;;;;;;;;;5067604;28;20515;-80
2022/01/23 10:56:25;;;;;;;36.97;28.17;;;;;;;;;;5061412;28;20505;-79
2022/01/23 10:58:57;;;;;;;36.00;25.40;;;;;;;;;;5070558;28;21034;-76
2022/01/23 11:01:24;;;;;;;21.00;16.93;;;;;;;;;;5076495;28;20475;-78
2022/01/23 11:04:04;;;;;;;19.97;15.03;;;;;;;;;;5074986;28;20983;-78
2022/01/23 11:06:31;;;;;;;19.00;16.37;;;;;;;;;;5075642;28;20468;-78
2022/01/23 11:09:08;;;;;;;22.43;17.70;;;;;;;;;;5067443;28;20465;-80
2022/01/23 11:11:45;;;;;;;19.93;16.20;;;;;;;;;;5074690;28;20584;-79
2022/01/23 11:19:58;;;;;;;22.40;17.60;;;;;;;;;;5015091;28;20447;-80
2022/01/23 11:22:26;;;;;;;26.33;17.90;;;;;;;;;;5043115;28;20450;-79
2022/01/23 11:24:53;;;;;;;21.10;17.40;;;;;;;;;;5073730;28;20462;-78
2022/01/23 11:27:23;;;;;;;23.57;17.73;;;;;;;;;;5054929;28;20445;-79
2022/01/23 11:29:57;;;;;;;21.03;16.97;;;;;;;;;;5057093;28;20468;-79
2022/01/23 11:32:27;;;;;;;21.03;17.43;;;;;;;;;;5074722;28;20509;-78
2022/01/23 11:35:02;;;;;;;19.10;15.07;;;;;;;;;;5072566;28;20487;-77
2022/01/23 11:37:30;;;;;;;19.43;14.73;;;;;;;;;;5066601;28;20445;-78
2022/01/23 11:40:03;;;;;;;18.13;13.63;;;;;;;;;;5068387;28;20520;-79
2022/01/23 11:50:52;;;;;;;22.60;14.73;;;;;;;;;;5074518;28;20423;-80
2022/01/23 11:53:50;;;;;;;16.10;14.40;;;;;;;;;;5074145;28;20805;-78
2022/01/23 11:56:38;;;;;;;15.83;14.10;;;;;;;;;;5074268;28;20476;-78
2022/01/23 11:59:25;;;;;;;15.23;13.20;;;;;;;;;;5061090;28;20879;-79
2022/01/23 12:02:35;;;;;;;18.20;14.50;;;;;;;;;;5074479;28;20445;-79
2022/01/23 12:05:19;;;;;;;17.20;14.60;;;;;;;;;;4992058;28;20495;-78
2022/01/23 12:08:07;;;;;;;17.63;14.33;;;;;;;;;;5050537;28;20478;-79
2022/01/23 12:10:51;;;;;;;17.30;14.00;;;;;;;;;;5054658;28;20469;-80
2022/01/23 12:13:56;;;;;;;18.33;15.40;;;;;;;;;;5055384;28;20568;-79
2022/01/23 12:16:42;;;;;;;22.13;16.80;;;;;;;;;;5055335;28;20462;-79
2022/01/23 12:19:18;;;;;;;21.23;16.57;;;;;;;;;;5054141;28;20462;-80
2022/01/23 12:21:46;;;;;;;20.00;16.30;;;;;;;;;;5056017;28;20541;-80
2022/01/23 12:24:14;;;;;;;20.50;17.30;;;;;;;;;;5062605;28;21007;-78
2022/01/23 12:27:17;;;;;;;21.87;16.93;;;;;;;;;;5090129;28;20601;-80
2022/01/23 12:29:45;;;;;;;19.40;16.93;;;;;;;;;;5068678;28;20992;-80
2022/01/23 12:32:19;;;;;;;19.03;16.77;;;;;;;;;;5070163;28;20924;-79
2022/01/23 12:34:47;;;;;;;17.73;15.77;;;;;;;;;;5069685;28;20482;-79
2022/01/23 12:37:14;;;;;;;15.90;14.20;;;;;;;;;;5069581;28;20491;-78
2022/01/23 12:39:41;;;;;;;19.97;14.80;;;;;;;;;;5070190;28;20523;-78
2022/01/23 12:42:08;;;;;;;15.13;13.53;;;;;;;;;;5068633;28;20449;-79
2022/01/23 12:44:37;;;;;;;15.90;13.07;;;;;;;;;;5068012;28;20445;-80
2022/01/23 12:47:06;;;;;;;17.43;14.13;;;;;;;;;;5076630;28;20486;-81
2022/01/23 12:49:34;;;;;;;14.87;11.80;;;;;;;;;;5077097;28;20499;-79
2022/01/23 12:52:23;;;;;;;13.93;12.00;;;;;;;;;;5078645;28;20567;-81
2022/01/23 12:54:51;;;;;;;16.20;13.37;;;;;;;;;;5074693;28;20506;-79
2022/01/23 12:57:20;;;;;;;15.87;12.70;;;;;;;;;;5061525;28;20943;-81
2022/01/23 12:59:52;;;;;;;16.00;12.80;;;;;;;;;;5081015;28;20440;-81
2022/01/23 13:02:22;;;;;;;14.50;12.77;;;;;;;;;;5079570;28;20433;-79
2022/01/23 13:04:51;;;;;;;14.13;12.60;;;;;;;;;;5086439;28;20438;-80
2022/01/23 13:07:39;;;;;;;13.70;11.60;;;;;;;;;;5092766;28;20498;-79
2022/01/23 13:10:07;;;;;;;19.60;12.13;;;;;;;;;;5093026;28;20518;-79
2022/01/23 13:12:50;;;;;;;15.03;12.10;;;;;;;;;;5081440;28;20444;-79
2022/01/23 13:18:20;;;;;;;12.20;10.80;;;;;;;;;;5054296;28;20853;-79
2022/01/23 13:32:05;;;;;;;5.53;4.70;;;;;;;;;;5069606;28;20439;-80
2022/01/23 13:34:36;;;;;;;24.13;17.43;;;;;;;;;;5081504;28;20443;-79
2022/01/23 13:37:04;;;;;;;6.20;4.90;;;;;;;;;;5079960;28;20427;-81
2022/01/23 13:39:33;;;;;;;5.30;4.90;;;;;;;;;;5056908;28;20487;-80
2022/01/23 13:42:09;;;;;;;4.60;4.20;;;;;;;;;;5056707;28;20472;-80
2022/01/23 13:52:57;;;;;;;4.60;3.63;;;;;;;;;;5059049;28;20445;-83
2022/01/23 14:00:59;;;;;;;3.73;3.43;;;;;;;;;;5051923;28;20505;-82
2022/01/23 14:03:27;;;;;;;6.47;3.67;;;;;;;;;;5055498;28;20610;-79
2022/01/23 14:05:55;;;;;;;4.07;3.77;;;;;;;;;;5055276;28;20477;-79
2022/01/23 14:08:22;;;;;;;6.10;3.57;;;;;;;;;;5055615;28;20551;-79
2022/01/23 14:10:53;;;;;;;3.47;3.03;;;;;;;;;;5056345;28;20435;-80
2022/01/23 14:13:20;;;;;;;3.57;3.00;;;;;;;;;;5055137;28;20748;-79
2022/01/23 14:15:49;;;;;;;3.90;3.37;;;;;;;;;;5055663;28;20438;-80
2022/01/23 14:18:22;;;;;;;4.33;3.93;;;;;;;;;;5055158;28;20469;-80
2022/01/23 14:20:58;;;;;;;5.27;4.80;;;;;;;;;;5055978;28;20442;-79
2022/01/23 14:23:25;;;;;;;4.03;3.67;;;;;;;;;;5060846;28;20446;-80
2022/01/23 14:25:54;;;;;;;4.17;3.87;;;;;;;;;;5074440;28;20523;-79
2022/01/23 14:28:22;;;;;;;4.53;4.13;;;;;;;;;;5076341;28;20472;-80
2022/01/23 14:30:50;;;;;;;3.77;3.37;;;;;;;;;;5075570;28;20525;-79
2022/01/23 14:33:19;;;;;;;3.77;3.20;;;;;;;;;;5075997;28;20524;-80
2022/01/23 14:35:46;;;;;;;4.57;3.77;;;;;;;;;;5077458;28;20449;-80
2022/01/23 14:38:16;;;;;;;3.80;3.50;;;;;;;;;;5076826;28;20874;-80
2022/01/23 14:40:53;;;;;;;3.70;3.40;;;;;;;;;;5075945;28;20452;-79
2022/01/23 14:43:20;;;;;;;6.67;4.67;;;;;;;;;;5076303;28;20448;-80
2022/01/23 14:45:48;;;;;;;5.13;4.67;;;;;;;;;;5076616;28;20481;-81
2022/01/23 14:48:17;;;;;;;4.70;4.13;;;;;;;;;;5075006;28;20466;-78
2022/01/23 14:50:46;;;;;;;4.30;3.90;;;;;;;;;;5078322;28;20448;-78
2022/01/23 14:53:16;;;;;;;2.90;2.70;;;;;;;;;;5083530;28;20947;-79
2022/01/23 14:55:44;;;;;;;3.80;3.10;;;;;;;;;;5084600;28;20437;-81
2022/01/23 14:58:12;;;;;;;3.70;3.40;;;;;;;;;;5082949;28;20465;-80
2022/01/23 15:00:39;;;;;;;3.73;3.47;;;;;;;;;;5082862;28;20936;-79
2022/01/23 15:03:07;;;;;;;3.50;3.30;;;;;;;;;;5079369;28;20468;-80
2022/01/23 15:05:35;;;;;;;4.13;3.83;;;;;;;;;;5062562;28;20474;-78
2022/01/23 15:08:04;;;;;;;3.53;3.23;;;;;;;;;;5055524;28;20466;-79
2022/01/23 15:10:33;;;;;;;3.60;3.37;;;;;;;;;;5054203;28;20434;-79
2022/01/23 15:13:00;;;;;;;3.60;3.30;;;;;;;;;;5053478;28;20485;-79
2022/01/23 15:15:28;;;;;;;4.67;4.27;;;;;;;;;;5054049;28;20454;-80
2022/01/23 15:17:55;;;;;;;4.40;3.80;;;;;;;;;;5054184;28;20511;-78
2022/01/23 15:20:22;;;;;;;4.80;3.63;;;;;;;;;;5054588;28;20442;-79
2022/01/23 15:22:49;;;;;;;4.73;4.33;;;;;;;;;;5053829;28;20774;-79
2022/01/23 15:25:18;;;;;;;5.37;4.13;;;;;;;;;;5055680;28;20453;-81
2022/01/23 15:27:46;;;;;;;4.60;4.17;;;;;;;;;;5055236;28;20454;-80
2022/01/23 15:30:16;;;;;;;4.87;4.37;;;;;;;;;;5055154;28;20449;-80
2022/01/23 15:32:43;;;;;;;5.07;4.30;;;;;;;;;;5055077;28;20457;-79
2022/01/23 15:35:10;;;;;;;5.10;4.60;;;;;;;;;;5053606;28;20465;-81
2022/01/23 15:37:37;;;;;;;7.03;4.17;;;;;;;;;;5054298;28;20469;-80
2022/01/23 15:40:05;;;;;;;5.10;4.30;;;;;;;;;;5053246;28;20814;-81
2022/01/23 15:42:32;;;;;;;4.80;4.30;;;;;;;;;;5052396;28;20446;-79
2022/01/23 15:45:01;;;;;;;5.03;4.63;;;;;;;;;;5052893;28;20438;-80
2022/01/23 15:47:28;;;;;;;5.13;4.73;;;;;;;;;;5051930;28;20470;-79
2022/01/23 15:49:55;;;;;;;5.40;4.93;;;;;;;;;;5053210;28;20934;-79
2022/01/23 15:52:22;;;;;;;4.83;4.43;;;;;;;;;;5053637;28;20434;-78
2022/01/23 15:54:49;;;;;;;5.00;4.53;;;;;;;;;;5053393;28;20499;-80
2022/01/23 15:57:17;;;;;;;5.77;5.23;;;;;;;;;;5053809;28;20449;-80
2022/01/23 15:59:44;;;;;;;51.97;39.50;;;;;;;;;;5052695;28;20454;-79
2022/01/23 16:02:12;;;;;;;79.23;50.50;;;;;;;;;;5053024;28;20446;-80
2022/01/23 16:04:40;;;;;;;7.10;6.40;;;;;;;;;;5052932;28;20976;-81
2022/01/23 16:07:08;;;;;;;5.00;4.50;;;;;;;;;;5051969;28;20474;-80
2022/01/23 16:09:35;;;;;;;5.37;4.87;;;;;;;;;;5051849;28;20472;-80
2022/01/23 16:12:02;;;;;;;5.10;4.60;;;;;;;;;;5052511;28;20449;-79
2022/01/23 16:14:29;;;;;;;5.10;4.60;;;;;;;;;;5052285;28;20454;-80
2022/01/23 16:16:56;;;;;;;4.63;4.23;;;;;;;;;;5052335;28;20434;-79
2022/01/23 16:19:24;;;;;;;4.60;4.30;;;;;;;;;;5052519;28;20470;-79
2022/01/23 16:21:54;;;;;;;4.10;3.80;;;;;;;;;;5053344;28;20500;-80
2022/01/23 16:24:22;;;;;;;4.63;4.13;;;;;;;;;;5053609;28;20823;-80
2022/01/23 16:26:49;;;;;;;5.20;4.77;;;;;;;;;;5053289;28;20544;-80
2022/01/23 16:29:17;;;;;;;5.37;4.90;;;;;;;;;;5052381;28;20549;-79
2022/01/23 16:31:44;;;;;;;4.70;4.30;;;;;;;;;;5053870;28;20482;-80
2022/01/23 16:34:11;;;;;;;6.27;4.33;;;;;;;;;;5052793;28;20929;-79
2022/01/23 16:36:39;;;;;;;8.93;5.37;;;;;;;;;;5053553;28;20446;-79
2022/01/23 16:39:09;;;;;;;4.10;3.70;;;;;;;;;;5053198;28;20523;-79
2022/01/23 16:41:36;;;;;;;4.73;4.33;;;;;;;;;;5053239;28;20449;-80
2022/01/23 16:44:03;;;;;;;4.47;4.07;;;;;;;;;;5052923;28;20929;-79
2022/01/23 16:46:31;;;;;;;4.83;4.43;;;;;;;;;;5052586;28;20852;-80
2022/01/23 16:48:58;;;;;;;4.67;4.37;;;;;;;;;;5052751;28;20473;-78
2022/01/23 16:51:25;;;;;;;4.63;4.23;;;;;;;;;;5052706;28;20848;-81
2022/01/23 16:53:53;;;;;;;5.10;4.60;;;;;;;;;;5053896;28;20461;-80
2022/01/23 16:56:20;;;;;;;4.30;3.90;;;;;;;;;;5052524;28;20495;-79
2022/01/23 16:58:47;;;;;;;5.77;4.77;;;;;;;;;;5052838;28;20557;-79
2022/01/23 17:01:14;;;;;;;5.13;4.37;;;;;;;;;;5053101;28;20426;-79
2022/01/23 17:03:41;;;;;;;4.23;3.83;;;;;;;;;;5052967;28;20552;-79
2022/01/23 17:06:08;;;;;;;3.83;3.40;;;;;;;;;;5053421;28;20539;-79
2022/01/23 17:08:36;;;;;;;4.07;3.77;;;;;;;;;;5052828;28;20470;-80
2022/01/23 17:11:05;;;;;;;4.90;4.40;;;;;;;;;;5052720;28;20836;-79
2022/01/23 17:13:32;;;;;;;4.60;4.23;;;;;;;;;;5056585;28;20481;-81
2022/01/23 17:15:59;;;;;;;4.43;4.10;;;;;;;;;;5057024;28;20507;-80
2022/01/23 17:18:26;;;;;;;4.90;4.50;;;;;;;;;;5056519;28;20467;-79
2022/01/23 17:20:53;;;;;;;4.70;4.30;;;;;;;;;;5056997;28;20440;-80
2022/01/23 17:23:20;;;;;;;4.30;3.90;;;;;;;;;;5056709;28;20822;-78
2022/01/23 17:25:47;;;;;;;4.90;4.50;;;;;;;;;;5056798;28;20457;-79
2022/01/23 17:28:15;;;;;;;4.77;4.37;;;;;;;;;;5056665;28;20851;-80